Time;durP1;ratioP1;P1;durP2;ratioP2;P2;SDS_P1;SDS_P2;PMS_P1;PMS_P2;Temp;Humidity;BMP_temperature;BMP_pressure;BME280_temperature;BME280_humidity;BME280_pressure;Samples;Min_cycle;Max_cycle;Signal;HPM_P1;HPM_P2
2022/03/06 00:00:59;;;;;;;31.77;14.57;;;;;;;2.26;99.06;99382.34;5095898;28;20229;-66
2022/03/06 00:03:26;;;;;;;33.60;15.27;;;;;;;2.19;99.43;99385.13;5098500;28;20205;-58
2022/03/06 00:05:52;;;;;;;29.83;14.23;;;;;;;2.22;99.52;99380.00;5096004;28;20245;-59
2022/03/06 00:08:21;;;;;;;34.10;15.97;;;;;;;2.09;99.75;99391.34;5095412;28;20229;-67
2022/03/06 00:10:48;;;;;;;34.47;15.97;;;;;;;1.99;100.00;99386.59;5100266;28;20241;-59
2022/03/06 00:13:16;;;;;;;30.77;13.60;;;;;;;1.92;100.00;99387.69;5097113;28;20595;-63
2022/03/06 00:15:44;;;;;;;30.27;13.03;;;;;;;1.59;100.00;99374.44;5094909;28;20252;-66
2022/03/06 00:18:11;;;;;;;24.70;11.77;;;;;;;1.62;100.00;99373.53;5094056;28;20197;-58
2022/03/06 00:20:38;;;;;;;25.97;13.03;;;;;;;1.48;100.00;99356.31;5099712;28;20253;-66
2022/03/06 00:23:05;;;;;;;29.53;13.87;;;;;;;1.31;100.00;99359.34;5097937;28;20212;-66
2022/03/06 00:25:34;;;;;;;35.93;16.80;;;;;;;1.21;100.00;99358.78;5097900;28;20242;-59
2022/03/06 00:28:01;;;;;;;35.73;15.30;;;;;;;1.25;100.00;99359.50;5096829;28;20251;-58
2022/03/06 00:30:28;;;;;;;30.87;13.07;;;;;;;1.22;100.00;99359.59;5096503;28;20214;-58
2022/03/06 00:32:55;;;;;;;31.77;14.23;;;;;;;1.17;100.00;99361.47;5097357;28;20201;-58
2022/03/06 00:35:24;;;;;;;37.03;16.97;;;;;;;1.02;100.00;99353.47;5095697;28;20225;-59
2022/03/06 00:37:51;;;;;;;27.47;13.87;;;;;;;1.03;100.00;99355.13;5096776;28;20247;-58
2022/03/06 00:40:18;;;;;;;37.57;16.53;;;;;;;0.89;100.00;99358.03;5097278;28;20679;-66
2022/03/06 00:42:46;;;;;;;31.77;15.87;;;;;;;0.90;100.00;99358.84;5096153;28;20702;-65
2022/03/06 00:45:13;;;;;;;37.97;16.90;;;;;;;0.73;100.00;99361.84;5097093;28;20221;-66
2022/03/06 00:47:40;;;;;;;37.23;16.63;;;;;;;0.67;100.00;99357.00;5097150;28;20241;-67
2022/03/06 00:50:08;;;;;;;34.87;15.27;;;;;;;0.72;100.00;99361.88;5095630;28;20221;-67
2022/03/06 00:52:36;;;;;;;33.90;16.00;;;;;;;0.73;100.00;99361.00;5097571;28;20288;-58
2022/03/06 00:55:03;;;;;;;35.53;15.97;;;;;;;0.68;100.00;99356.13;5096429;28;20222;-63
2022/03/06 00:57:29;;;;;;;29.33;12.90;;;;;;;0.70;100.00;99356.06;5096650;28;20202;-66
2022/03/06 00:59:58;;;;;;;33.67;15.30;;;;;;;0.67;100.00;99347.75;5096550;28;20232;-66
2022/03/06 01:02:25;;;;;;;36.57;16.63;;;;;;;0.65;100.00;99354.50;5096280;28;20206;-67
2022/03/06 01:04:52;;;;;;;28.37;12.53;;;;;;;0.74;100.00;99355.94;5094691;28;20475;-59
2022/03/06 01:07:19;;;;;;;26.03;12.17;;;;;;;0.75;100.00;99354.25;5096081;28;20202;-66
2022/03/06 01:09:45;;;;;;;25.30;11.90;;;;;;;0.68;100.00;99359.44;5096876;28;20194;-66
2022/03/06 01:12:13;;;;;;;35.20;15.67;;;;;;;0.70;100.00;99351.03;5096638;28;20202;-58
2022/03/06 01:14:40;;;;;;;27.67;13.37;;;;;;;0.69;100.00;99350.22;5097097;28;20222;-58
2022/03/06 01:17:08;;;;;;;37.57;17.20;;;;;;;0.67;100.00;99352.78;5095629;28;20194;-65
2022/03/06 01:19:35;;;;;;;24.70;11.60;;;;;;;0.67;100.00;99349.44;5096096;28;20530;-66
2022/03/06 01:22:02;;;;;;;35.37;15.37;;;;;;;0.63;100.00;99353.72;5097935;28;20289;-58
2022/03/06 01:24:30;;;;;;;29.70;14.40;;;;;;;0.57;100.00;99351.38;5096452;28;20198;-58
2022/03/06 01:26:58;;;;;;;35.33;15.53;;;;;;;0.64;100.00;99357.91;5095900;28;20217;-57
2022/03/06 01:29:25;;;;;;;35.27;15.30;;;;;;;0.59;100.00;99354.69;5096051;28;20230;-57
2022/03/06 01:31:52;;;;;;;34.13;15.87;;;;;;;0.54;100.00;99363.22;5095726;28;20202;-58
2022/03/06 01:34:21;;;;;;;28.97;10.10;;;;;;;0.48;100.00;99360.88;5096082;28;20206;-61
2022/03/06 01:36:48;;;;;;;33.67;15.63;;;;;;;0.56;100.00;99359.78;5097882;28;20229;-65
2022/03/06 01:39:15;;;;;;;25.47;12.03;;;;;;;0.44;100.00;99345.03;5095977;28;20467;-65
2022/03/06 01:41:43;;;;;;;29.97;13.03;;;;;;;0.53;100.00;99349.81;5095368;28;20793;-66
2022/03/06 01:44:13;;;;;;;24.40;11.77;;;;;;;0.48;100.00;99354.13;5096669;28;20209;-58
2022/03/06 01:46:41;;;;;;;31.47;13.40;;;;;;;0.46;100.00;99355.84;5096975;28;20222;-58
2022/03/06 01:49:08;;;;;;;32.93;14.60;;;;;;;0.48;100.00;99350.81;5095527;28;20229;-66
2022/03/06 01:51:37;;;;;;;24.67;12.47;;;;;;;0.40;100.00;99358.53;5095083;28;20476;-58
2022/03/06 01:54:04;;;;;;;34.17;12.53;;;;;;;0.43;100.00;99350.91;5097218;28;20193;-66
2022/03/06 01:56:32;;;;;;;31.80;13.90;;;;;;;0.49;100.00;99352.44;5093986;28;20484;-57
2022/03/06 01:59:01;;;;;;;27.93;12.20;;;;;;;0.40;100.00;99344.28;5096698;28;20213;-67
2022/03/06 02:01:29;;;;;;;27.27;12.67;;;;;;;0.41;100.00;99345.94;5096135;28;20501;-58
2022/03/06 02:03:55;;;;;;;30.60;13.57;;;;;;;0.41;100.00;99342.59;5095019;28;20206;-66
2022/03/06 02:06:22;;;;;;;21.80;10.03;;;;;;;0.43;100.00;99343.38;5095553;28;20464;-66
2022/03/06 02:08:51;;;;;;;32.97;14.47;;;;;;;0.39;100.00;99346.84;5094814;28;20267;-66
2022/03/06 02:11:18;;;;;;;34.87;14.03;;;;;;;0.32;100.00;99350.38;5095905;28;20464;-57
2022/03/06 02:13:46;;;;;;;27.93;12.13;;;;;;;0.37;100.00;99353.59;5096074;28;20452;-66
2022/03/06 02:16:13;;;;;;;25.43;11.60;;;;;;;0.39;100.00;99351.88;5095166;28;20684;-66
2022/03/06 02:18:40;;;;;;;37.97;15.47;;;;;;;0.34;100.00;99344.44;5094429;28;20448;-66
2022/03/06 02:21:10;;;;;;;28.07;13.37;;;;;;;0.32;100.00;99341.16;5096191;28;20574;-64
2022/03/06 02:23:37;;;;;;;30.80;13.37;;;;;;;0.35;100.00;99340.22;5096401;28;20432;-58
2022/03/06 02:26:05;;;;;;;31.40;14.40;;;;;;;0.30;100.00;99342.88;5097579;28;20599;-57
2022/03/06 02:28:32;;;;;;;24.30;11.83;;;;;;;0.32;100.00;99348.69;5095460;28;20487;-57
2022/03/06 02:31:01;;;;;;;20.07;9.90;;;;;;;0.36;100.00;99342.72;5099933;28;20452;-66
2022/03/06 02:33:29;;;;;;;25.93;12.17;;;;;;;0.32;100.00;99346.19;5101670;28;20455;-58
2022/03/06 02:35:56;;;;;;;26.27;9.90;;;;;;;0.29;100.00;99345.41;5099694;28;20483;-57
2022/03/06 02:38:24;;;;;;;28.10;12.43;;;;;;;0.26;100.00;99343.00;5097746;28;20448;-65
2022/03/06 02:40:54;;;;;;;21.00;10.33;;;;;;;0.26;100.00;99345.50;5099376;28;20486;-57
2022/03/06 02:43:21;;;;;;;30.17;13.50;;;;;;;0.26;100.00;99350.53;5098430;28;20945;-57
2022/03/06 02:45:50;;;;;;;28.47;13.30;;;;;;;0.27;100.00;99353.03;5100898;28;20540;-65
2022/03/06 02:48:19;;;;;;;20.60;9.83;;;;;;;0.24;100.00;99357.31;5098388;28;20496;-57
2022/03/06 02:50:46;;;;;;;22.73;10.13;;;;;;;0.31;99.96;99358.78;5098786;28;20226;-57
2022/03/06 02:53:13;;;;;;;20.80;8.43;;;;;;;0.28;99.03;99351.31;5098820;28;20619;-57
2022/03/06 02:55:43;;;;;;;21.97;11.03;;;;;;;0.36;97.82;99351.97;5100414;28;20582;-57
2022/03/06 02:58:10;;;;;;;16.13;8.67;;;;;;;0.35;97.71;99348.63;5098734;28;20524;-66
2022/03/06 03:00:37;;;;;;;15.17;7.33;;;;;;;0.40;97.45;99356.03;5100190;28;20468;-57
2022/03/06 03:03:04;;;;;;;20.37;9.70;;;;;;;0.41;96.41;99365.25;5098203;28;20459;-64
2022/03/06 03:05:32;;;;;;;21.30;9.23;;;;;;;0.47;95.26;99354.16;5099303;28;20472;-57
2022/03/06 03:07:59;;;;;;;18.70;9.27;;;;;;;0.41;94.25;99360.22;5099731;28;20891;-66
2022/03/06 03:10:27;;;;;;;15.90;7.93;;;;;;;0.44;94.05;99360.13;5099415;28;21047;-57
2022/03/06 03:12:57;;;;;;;12.67;6.67;;;;;;;0.41;93.62;99375.31;5098187;28;20614;-66
2022/03/06 03:15:24;;;;;;;12.87;6.07;;;;;;;0.43;93.24;99373.56;5099086;28;20473;-57
2022/03/06 03:17:51;;;;;;;21.30;10.10;;;;;;;0.41;92.33;99376.13;5099525;28;20451;-66
2022/03/06 03:20:19;;;;;;;16.33;8.40;;;;;;;0.45;92.71;99376.84;5098735;28;20993;-58
2022/03/06 03:22:46;;;;;;;19.87;9.07;;;;;;;0.40;92.61;99378.66;5098587;28;20448;-57
2022/03/06 03:25:13;;;;;;;18.17;8.83;;;;;;;0.46;92.66;99378.50;5097171;28;20244;-57
2022/03/06 03:27:40;;;;;;;17.43;7.93;;;;;;;0.39;93.06;99377.03;5099820;28;20448;-57
2022/03/06 03:30:11;;;;;;;18.23;8.53;;;;;;;0.37;93.34;99373.72;5097676;28;20514;-58
2022/03/06 03:32:39;;;;;;;14.40;7.17;;;;;;;0.36;92.73;99372.06;5098785;28;20509;-65
2022/03/06 03:35:08;;;;;;;22.93;9.60;;;;;;;0.29;92.86;99380.63;5098998;28;20827;-57
2022/03/06 03:37:35;;;;;;;13.90;7.30;;;;;;;0.28;93.42;99379.00;5080515;28;20979;-65
2022/03/06 03:40:06;;;;;;;18.10;9.27;;;;;;;0.22;93.77;99385.81;5098265;28;20475;-65
2022/03/06 03:42:33;;;;;;;22.67;10.27;;;;;;;0.29;93.63;99385.66;5098778;28;20452;-66
2022/03/06 03:45:00;;;;;;;20.53;10.07;;;;;;;0.20;93.99;99387.56;5098588;28;20471;-57
2022/03/06 03:47:28;;;;;;;13.57;7.00;;;;;;;0.13;94.21;99386.06;5097306;28;20535;-57
2022/03/06 03:49:55;;;;;;;20.80;10.17;;;;;;;0.10;94.40;99390.34;5096665;28;20518;-57
2022/03/06 03:52:22;;;;;;;23.13;8.93;;;;;;;0.08;94.11;99390.34;5098999;28;20450;-64
2022/03/06 03:54:49;;;;;;;26.17;9.57;;;;;;;0.09;94.83;99394.53;5098450;28;20484;-57
2022/03/06 03:57:15;;;;;;;18.43;8.67;;;;;;;0.00;94.46;99389.75;5098995;28;20432;-58
2022/03/06 03:59:44;;;;;;;20.03;10.20;;;;;;;-0.05;94.57;99397.38;5098088;28;20456;-65
2022/03/06 04:02:11;;;;;;;16.97;7.00;;;;;;;-0.04;94.35;99405.75;5095425;28;20453;-66
2022/03/06 04:04:39;;;;;;;22.50;10.07;;;;;;;-0.09;93.81;99405.03;5098053;28;20460;-66
2022/03/06 04:07:06;;;;;;;15.80;7.27;;;;;;;-0.12;93.88;99405.91;5098436;28;20447;-65
2022/03/06 04:09:33;;;;;;;21.47;9.60;;;;;;;-0.06;93.63;99404.94;5097805;28;20511;-56
2022/03/06 04:12:00;;;;;;;17.17;7.77;;;;;;;-0.12;92.65;99405.91;5096797;28;20444;-66
2022/03/06 04:14:28;;;;;;;14.97;6.37;;;;;;;-0.14;92.85;99406.84;5097013;28;20916;-65
2022/03/06 04:16:54;;;;;;;16.77;7.00;;;;;;;-0.18;92.58;99406.06;5097447;28;20448;-64
2022/03/06 04:19:21;;;;;;;19.77;8.10;;;;;;;-0.21;92.18;99407.81;5097226;28;20466;-57
2022/03/06 04:21:51;;;;;;;17.10;7.23;;;;;;;-0.26;92.20;99412.97;5097429;28;20474;-57
2022/03/06 04:24:18;;;;;;;17.70;7.97;;;;;;;-0.21;92.23;99411.16;5098580;28;20468;-56
2022/03/06 04:26:45;;;;;;;12.23;6.00;;;;;;;-0.21;91.81;99423.72;5095562;28;20985;-65
2022/03/06 04:29:12;;;;;;;21.20;9.30;;;;;;;-0.28;91.71;99415.50;5097362;28;20499;-57
2022/03/06 04:31:39;;;;;;;16.43;8.23;;;;;;;-0.18;92.22;99415.28;5096608;28;20464;-65
2022/03/06 04:34:06;;;;;;;12.47;6.00;;;;;;;-0.18;91.54;99415.28;5095524;28;20451;-65
2022/03/06 04:36:33;;;;;;;17.73;8.70;;;;;;;-0.20;91.82;99424.53;5099165;28;20472;-57
2022/03/06 04:39:01;;;;;;;14.03;6.17;;;;;;;-0.24;91.05;99424.63;5096969;28;20442;-65
2022/03/06 04:41:29;;;;;;;18.90;8.63;;;;;;;-0.22;91.54;99423.78;5096478;28;20468;-57
2022/03/06 04:43:56;;;;;;;17.70;8.27;;;;;;;-0.21;91.25;99422.91;5096276;28;20435;-57
2022/03/06 04:46:26;;;;;;;13.53;6.37;;;;;;;-0.16;91.03;99428.66;5096386;28;20475;-57
2022/03/06 04:48:53;;;;;;;15.53;7.53;;;;;;;-0.17;90.86;99427.84;5095574;28;20484;-65
2022/03/06 04:51:20;;;;;;;17.63;8.57;;;;;;;-0.18;90.14;99422.84;5096020;28;20475;-66
2022/03/06 04:53:47;;;;;;;12.07;6.30;;;;;;;-0.18;90.28;99415.28;5096902;28;20452;-57
2022/03/06 04:56:16;;;;;;;12.90;6.40;;;;;;;-0.18;90.17;99425.34;5095738;28;20464;-57
2022/03/06 04:58:43;;;;;;;12.57;6.83;;;;;;;-0.21;90.74;99423.72;5097079;28;20750;-66
2022/03/06 05:01:09;;;;;;;19.40;8.07;;;;;;;-0.20;90.40;99422.03;5098172;28;20859;-57
2022/03/06 05:03:36;;;;;;;16.30;7.70;;;;;;;-0.18;90.99;99430.38;5096020;28;20448;-57
2022/03/06 05:06:04;;;;;;;15.43;7.00;;;;;;;-0.24;91.12;99423.78;5096862;28;20518;-57
2022/03/06 05:08:32;;;;;;;16.50;7.73;;;;;;;-0.21;91.31;99420.38;5097415;28;20527;-65
2022/03/06 05:10:59;;;;;;;13.17;6.27;;;;;;;-0.31;91.00;99418.09;5097007;28;20532;-57
2022/03/06 05:13:27;;;;;;;12.43;5.37;;;;;;;-0.27;90.58;99422.19;5096171;28;20447;-57
2022/03/06 05:15:54;;;;;;;12.37;6.47;;;;;;;-0.31;91.32;99420.59;5096981;28;20487;-57
2022/03/06 05:18:20;;;;;;;11.83;5.53;;;;;;;-0.27;90.72;99421.34;5097523;28;20874;-58
2022/03/06 05:20:47;;;;;;;15.27;6.30;;;;;;;-0.34;91.04;99423.19;5096921;28;20488;-57
2022/03/06 05:23:14;;;;;;;11.40;6.13;;;;;;;-0.34;90.01;99433.25;5096472;28;20455;-56
2022/03/06 05:25:41;;;;;;;12.10;4.97;;;;;;;-0.32;90.51;99434.03;5099552;28;20483;-65
2022/03/06 05:28:08;;;;;;;11.60;5.93;;;;;;;-0.41;90.78;99431.69;5097164;28;20444;-65
2022/03/06 05:30:37;;;;;;;12.07;6.73;;;;;;;-0.38;90.79;99436.66;5094834;28;20491;-57
2022/03/06 05:33:05;;;;;;;10.27;5.07;;;;;;;-0.36;90.73;99434.94;5095989;28;20452;-65
2022/03/06 05:35:32;;;;;;;9.93;5.47;;;;;;;-0.32;90.24;99434.03;5095711;28;20479;-65
2022/03/06 05:37:59;;;;;;;9.63;5.03;;;;;;;-0.34;90.26;99429.91;5095999;28;20459;-57
2022/03/06 05:40:27;;;;;;;11.53;5.97;;;;;;;-0.33;90.17;99442.41;5098152;28;20475;-65
2022/03/06 05:42:53;;;;;;;12.37;5.13;;;;;;;-0.30;90.30;99442.34;5094872;28;20447;-65
2022/03/06 05:45:21;;;;;;;12.53;5.83;;;;;;;-0.40;90.36;99445.13;5095057;28;21009;-58
2022/03/06 05:47:49;;;;;;;11.10;5.23;;;;;;;-0.44;90.66;99446.84;5094611;28;20509;-65
2022/03/06 05:50:16;;;;;;;11.10;4.30;;;;;;;-0.35;90.36;99438.28;5092992;28;20495;-65
2022/03/06 05:52:44;;;;;;;8.70;4.50;;;;;;;-0.39;90.32;99447.56;5093949;28;20459;-57
2022/03/06 05:55:12;;;;;;;7.70;4.80;;;;;;;-0.50;90.97;99440.25;5097403;28;20467;-65
2022/03/06 05:57:39;;;;;;;9.33;4.43;;;;;;;-0.47;90.76;99449.41;5096448;28;20440;-57
2022/03/06 06:00:08;;;;;;;6.60;3.40;;;;;;;-0.60;90.25;99443.03;5095787;28;20476;-57
2022/03/06 06:02:36;;;;;;;8.93;4.90;;;;;;;-0.47;90.76;99446.91;5094723;28;20444;-65
2022/03/06 06:05:07;;;;;;;9.77;4.93;;;;;;;-0.54;89.43;99443.72;5095508;28;20567;-57
2022/03/06 06:07:35;;;;;;;8.37;4.57;;;;;;;-0.53;89.47;99450.38;5097153;28;20455;-65
2022/03/06 06:10:04;;;;;;;7.57;3.87;;;;;;;-0.50;89.12;99447.81;5094228;28;20498;-66
2022/03/06 06:12:30;;;;;;;10.23;5.30;;;;;;;-0.53;89.72;99450.38;5096352;28;20447;-58
2022/03/06 06:14:57;;;;;;;7.27;3.93;;;;;;;-0.52;89.08;99451.22;5095264;28;20542;-57
2022/03/06 06:17:24;;;;;;;8.77;4.47;;;;;;;-0.49;89.41;99451.16;5094393;28;20448;-65
2022/03/06 06:19:51;;;;;;;10.07;5.13;;;;;;;-0.55;89.08;99449.59;5094223;28;20498;-57
2022/03/06 06:22:20;;;;;;;5.13;3.50;;;;;;;-0.42;89.71;99457.69;5095382;28;20451;-57
2022/03/06 06:24:47;;;;;;;6.93;3.60;;;;;;;-0.32;89.65;99459.16;5093965;28;21036;-64
2022/03/06 06:27:14;;;;;;;9.20;5.13;;;;;;;-0.36;88.91;99454.22;5095754;28;20451;-55
2022/03/06 06:29:41;;;;;;;8.43;4.27;;;;;;;-0.49;88.91;99461.22;5094791;28;20479;-65
2022/03/06 06:32:08;;;;;;;8.27;3.83;;;;;;;-0.46;88.96;99461.13;5096614;28;20449;-56
2022/03/06 06:34:36;;;;;;;8.43;4.23;;;;;;;-0.46;88.29;99461.13;5094020;28;21007;-64
2022/03/06 06:37:03;;;;;;;7.43;4.30;;;;;;;-0.43;88.24;99462.75;5094797;28;20436;-56
2022/03/06 06:39:34;;;;;;;10.23;5.27;;;;;;;-0.35;88.89;99459.22;5095785;28;20867;-64
2022/03/06 06:42:03;;;;;;;5.73;3.60;;;;;;;-0.30;88.64;99462.44;5095952;28;20444;-64
2022/03/06 06:44:30;;;;;;;6.07;3.43;;;;;;;-0.39;87.80;99472.69;5095634;28;20520;-64
2022/03/06 06:46:57;;;;;;;7.70;4.50;;;;;;;-0.47;87.39;99472.88;5094310;28;20517;-64
2022/03/06 06:49:24;;;;;;;6.50;3.33;;;;;;;-0.41;88.55;99471.06;5093493;28;20864;-65
2022/03/06 06:51:51;;;;;;;7.47;4.27;;;;;;;-0.41;88.11;99471.91;5094989;28;20480;-65
2022/03/06 06:54:18;;;;;;;5.73;3.50;;;;;;;-0.33;88.63;99472.56;5095170;28;20463;-65
2022/03/06 06:56:46;;;;;;;9.23;4.00;;;;;;;-0.39;88.39;99462.66;5095445;28;20464;-56
2022/03/06 06:59:14;;;;;;;9.37;4.47;;;;;;;-0.26;88.33;99466.56;5094808;28;20452;-56
2022/03/06 07:01:42;;;;;;;12.73;5.60;;;;;;;-0.14;88.49;99457.91;5096328;28;20837;-64
2022/03/06 07:04:08;;;;;;;10.07;4.70;;;;;;;-0.06;88.33;99447.66;5093730;28;20468;-64
2022/03/06 07:06:36;;;;;;;9.90;5.30;;;;;;;-0.06;87.95;99460.25;5094922;28;20218;-56
2022/03/06 07:09:04;;;;;;;7.47;4.33;;;;;;;-0.07;87.21;99458.59;5094697;28;20451;-56
2022/03/06 07:11:32;;;;;;;8.87;4.17;;;;;;;-0.12;87.65;99456.19;5093606;28;20938;-59
2022/03/06 07:14:01;;;;;;;8.53;4.50;;;;;;;0.00;88.39;99455.09;5095127;28;20456;-56
2022/03/06 07:16:28;;;;;;;11.33;4.80;;;;;;;0.03;87.96;99462.56;5097835;28;20550;-56
2022/03/06 07:18:55;;;;;;;9.73;4.80;;;;;;;0.11;87.79;99463.19;5097831;28;20450;-64
2022/03/06 07:21:22;;;;;;;8.70;4.90;;;;;;;0.16;88.22;99448.81;5097752;28;20476;-65
2022/03/06 07:23:48;;;;;;;9.67;5.00;;;;;;;0.25;88.48;99469.59;5096738;28;20468;-56
2022/03/06 07:26:16;;;;;;;5.97;3.53;;;;;;;0.16;88.17;99468.94;5098163;28;20626;-65
2022/03/06 07:28:42;;;;;;;10.33;4.73;;;;;;;0.10;87.97;99466.56;5097420;28;20464;-64
2022/03/06 07:31:11;;;;;;;7.83;4.17;;;;;;;0.05;88.18;99455.78;5096712;28;20499;-65
2022/03/06 07:33:38;;;;;;;10.30;4.90;;;;;;;0.16;88.28;99461.41;5095286;28;21016;-64
2022/03/06 07:36:06;;;;;;;9.30;4.80;;;;;;;0.17;87.12;99468.06;5096039;28;20468;-65
2022/03/06 07:38:32;;;;;;;9.90;5.33;;;;;;;0.28;87.17;99469.50;5099507;28;20448;-56
2022/03/06 07:40:59;;;;;;;4.40;2.47;;;;;;;0.35;87.54;99468.50;5100344;28;20543;-64
2022/03/06 07:43:26;;;;;;;8.23;4.30;;;;;;;0.40;87.09;99464.19;5099097;28;20232;-63
2022/03/06 07:45:53;;;;;;;7.77;4.47;;;;;;;0.47;87.17;99469.88;5099032;28;20480;-63
2022/03/06 07:48:21;;;;;;;10.80;5.13;;;;;;;0.36;86.95;99473.50;5098429;28;20444;-64
2022/03/06 07:50:49;;;;;;;7.57;4.80;;;;;;;0.36;87.00;99467.66;5098718;28;20495;-56
2022/03/06 07:53:15;;;;;;;8.53;4.50;;;;;;;0.42;87.02;99470.81;5096754;28;20448;-65
2022/03/06 07:55:43;;;;;;;6.40;3.50;;;;;;;0.46;87.27;99479.13;5097771;28;20475;-65
2022/03/06 07:58:11;;;;;;;7.93;4.47;;;;;;;0.42;86.90;99472.53;5098292;28;20444;-65
2022/03/06 08:00:38;;;;;;;10.73;5.87;;;;;;;0.75;87.75;99464.97;5097994;28;20866;-63
2022/03/06 08:03:05;;;;;;;9.93;5.43;;;;;;;0.92;87.04;99477.94;5097284;28;20452;-56
2022/03/06 08:05:33;;;;;;;9.33;5.23;;;;;;;0.93;87.32;99471.22;5098412;28;20475;-56
2022/03/06 08:08:00;;;;;;;12.20;5.13;;;;;;;0.96;85.39;99476.16;5096767;28;20216;-56
2022/03/06 08:10:27;;;;;;;11.03;5.30;;;;;;;1.13;86.44;99477.38;5097109;28;20236;-65
2022/03/06 08:12:54;;;;;;;11.97;5.40;;;;;;;1.19;84.64;99470.50;5097088;28;20444;-64
2022/03/06 08:15:21;;;;;;;16.10;6.60;;;;;;;1.01;85.93;99467.63;5098766;28;20226;-56
2022/03/06 08:17:48;;;;;;;13.17;6.83;;;;;;;1.44;85.92;99463.09;5097848;28;20228;-64
2022/03/06 08:20:14;;;;;;;13.30;7.20;;;;;;;1.71;85.41;99469.00;5099870;28;20237;-65
2022/03/06 08:22:44;;;;;;;9.77;5.03;;;;;;;1.88;84.05;99466.78;5096538;28;20204;-56
2022/03/06 08:25:12;;;;;;;10.43;6.00;;;;;;;1.97;83.97;99464.00;5096185;28;20531;-56
2022/03/06 08:27:39;;;;;;;9.17;5.07;;;;;;;1.49;83.72;99459.56;5094774;28;20210;-56
2022/03/06 08:30:07;;;;;;;11.53;5.53;;;;;;;1.73;85.00;99457.19;5095935;28;20617;-56
2022/03/06 08:32:35;;;;;;;8.40;5.03;;;;;;;1.71;83.57;99449.66;5096905;28;20212;-56
2022/03/06 08:35:02;;;;;;;9.53;5.47;;;;;;;1.45;83.26;99455.47;5098070;28;20232;-58
2022/03/06 08:37:29;;;;;;;9.07;5.77;;;;;;;1.42;84.74;99457.25;5097227;28;20202;-56
2022/03/06 08:39:58;;;;;;;13.07;6.40;;;;;;;1.70;85.20;99454.75;5096648;28;20263;-57
2022/03/06 08:42:25;;;;;;;10.87;5.77;;;;;;;1.62;84.71;99449.94;5096533;28;20217;-56
2022/03/06 08:44:52;;;;;;;9.43;5.07;;;;;;;1.51;84.60;99449.44;5098119;28;20218;-65
2022/03/06 08:47:19;;;;;;;8.97;4.93;;;;;;;1.70;85.96;99444.69;5096788;28;20208;-56
2022/03/06 08:49:45;;;;;;;11.30;6.03;;;;;;;1.81;85.39;99440.13;5095772;28;20189;-56
2022/03/06 08:52:14;;;;;;;14.03;6.37;;;;;;;1.90;85.55;99434.81;5095700;28;20579;-65
2022/03/06 08:54:41;;;;;;;8.07;4.77;;;;;;;1.76;83.39;99441.97;5096677;28;20240;-56
2022/03/06 08:57:09;;;;;;;11.00;5.47;;;;;;;1.55;83.03;99434.19;5095919;28;20192;-63
2022/03/06 08:59:36;;;;;;;11.33;6.00;;;;;;;1.43;84.21;99434.56;5098122;28;20225;-56
2022/03/06 09:02:04;;;;;;;14.50;7.13;;;;;;;1.81;85.64;99430.06;5095679;28;20644;-65
2022/03/06 09:04:33;;;;;;;12.33;6.07;;;;;;;1.92;83.58;99437.25;5097257;28;20583;-65
2022/03/06 09:07:01;;;;;;;10.07;4.90;;;;;;;2.07;82.48;99441.84;5097667;28;20261;-65
2022/03/06 09:09:27;;;;;;;8.67;4.07;;;;;;;2.08;82.09;99445.19;5097158;28;20681;-65
2022/03/06 09:11:55;;;;;;;9.10;4.37;;;;;;;2.06;81.93;99451.97;5097429;28;20236;-63
2022/03/06 09:14:24;;;;;;;9.10;5.23;;;;;;;2.08;82.84;99442.66;5096360;28;20204;-65
2022/03/06 09:16:50;;;;;;;13.37;6.17;;;;;;;2.16;82.19;99445.78;5094664;28;20596;-65
2022/03/06 09:19:17;;;;;;;11.03;5.37;;;;;;;2.19;82.10;99445.69;5094424;28;20216;-65
2022/03/06 09:21:44;;;;;;;11.27;5.77;;;;;;;2.39;81.56;99450.91;5095633;28;20222;-65
2022/03/06 09:24:12;;;;;;;12.50;6.40;;;;;;;2.43;80.63;99446.56;5094661;28;20197;-57
2022/03/06 09:26:40;;;;;;;9.13;5.07;;;;;;;2.23;80.67;99457.31;5095295;28;20249;-65
2022/03/06 09:29:08;;;;;;;10.60;6.00;;;;;;;2.23;81.31;99447.22;5095773;28;20702;-65
2022/03/06 09:31:36;;;;;;;13.07;7.70;;;;;;;2.17;80.71;99460.03;5094385;28;20245;-56
2022/03/06 09:34:03;;;;;;;11.17;6.13;;;;;;;2.25;81.90;99455.56;5096059;28;20210;-56
2022/03/06 09:36:30;;;;;;;9.00;4.90;;;;;;;2.09;81.19;99454.41;5095338;28;20221;-65
2022/03/06 09:38:57;;;;;;;11.17;5.27;;;;;;;2.10;82.19;99454.34;5093796;28;20220;-56
2022/03/06 09:41:28;;;;;;;11.20;5.77;;;;;;;2.21;81.36;99454.00;5095650;28;20221;-56
2022/03/06 09:43:56;;;;;;;8.30;4.47;;;;;;;2.19;80.40;99458.28;5096988;28;20190;-65
2022/03/06 09:46:24;;;;;;;11.60;5.23;;;;;;;2.25;79.86;99455.56;5097202;28;20222;-65
2022/03/06 09:48:54;;;;;;;9.20;4.53;;;;;;;2.31;79.64;99460.41;5096509;28;20206;-64
2022/03/06 09:51:22;;;;;;;6.97;4.13;;;;;;;2.10;79.28;99458.59;5093444;28;20241;-56
2022/03/06 09:53:50;;;;;;;8.07;3.77;;;;;;;2.01;79.50;99465.56;5097258;28;20228;-56
2022/03/06 09:56:17;;;;;;;8.07;4.37;;;;;;;2.04;79.81;99452.84;5096430;28;20226;-65
2022/03/06 09:58:44;;;;;;;6.90;4.17;;;;;;;2.19;80.09;99460.81;5096289;28;20205;-65
2022/03/06 10:01:12;;;;;;;10.57;5.10;;;;;;;2.09;80.14;99464.47;5095947;28;20263;-56
2022/03/06 10:03:39;;;;;;;10.10;5.53;;;;;;;2.08;80.74;99457.81;5096392;28;20682;-64
2022/03/06 10:06:11;;;;;;;9.87;5.43;;;;;;;2.17;80.34;99463.38;5095163;28;20649;-57
2022/03/06 10:08:38;;;;;;;9.77;5.17;;;;;;;2.29;81.49;99457.09;5094582;28;20614;-56
2022/03/06 10:11:07;;;;;;;12.53;5.73;;;;;;;2.24;81.68;99441.28;5094198;28;20233;-65
2022/03/06 10:13:36;;;;;;;9.93;5.73;;;;;;;2.09;83.74;99455.22;5093792;28;20213;-57
2022/03/06 10:16:14;;;;;;;8.57;4.87;;;;;;;1.97;84.58;99451.38;5093632;28;20230;-57
2022/03/06 10:18:44;;;;;;;7.30;4.07;;;;;;;1.90;84.23;99444.91;5094082;28;20204;-57
2022/03/06 10:21:22;;;;;;;11.00;5.67;;;;;;;1.77;85.20;99441.91;5093599;28;20222;-64
2022/03/06 10:23:51;;;;;;;10.33;4.47;;;;;;;1.72;84.58;99440.44;5092731;28;20263;-63
2022/03/06 10:26:20;;;;;;;11.37;5.50;;;;;;;1.73;85.37;99437.03;5093637;28;20226;-63
2022/03/06 10:28:49;;;;;;;10.27;5.57;;;;;;;1.87;86.18;99439.94;5094657;28;20206;-64
2022/03/06 10:31:18;;;;;;;9.93;5.47;;;;;;;1.87;84.81;99434.09;5092830;28;20245;-64
2022/03/06 10:34:00;;;;;;;10.03;5.10;;;;;;;1.85;84.60;99429.06;5093453;28;20201;-64
2022/03/06 10:36:38;;;;;;;11.07;6.03;;;;;;;1.79;84.12;99425.06;5094571;28;20225;-56
2022/03/06 10:39:11;;;;;;;10.90;5.53;;;;;;;1.80;83.72;99420.81;5093556;28;20193;-63
2022/03/06 10:41:41;;;;;;;9.37;5.57;;;;;;;1.90;82.72;99429.75;5095287;28;20397;-63
2022/03/06 10:44:09;;;;;;;8.20;4.93;;;;;;;1.93;82.55;99417.06;5095112;28;20217;-55
2022/03/06 10:46:37;;;;;;;8.87;4.67;;;;;;;1.94;81.89;99418.69;5095853;28;20230;-55
2022/03/06 10:49:12;;;;;;;9.87;4.87;;;;;;;2.04;82.75;99420.06;5093261;28;20202;-64
2022/03/06 10:51:43;;;;;;;9.53;5.27;;;;;;;1.96;82.07;99411.09;5098344;28;20327;-64
2022/03/06 10:54:10;;;;;;;7.13;3.73;;;;;;;1.88;82.82;99406.28;5099122;28;20206;-63
2022/03/06 10:56:38;;;;;;;7.77;4.87;;;;;;;1.70;84.61;99401.84;5098398;28;20240;-56
2022/03/06 10:59:07;;;;;;;10.90;5.90;;;;;;;1.53;86.75;99400.66;5099189;28;20695;-64
2022/03/06 11:01:35;;;;;;;8.80;4.87;;;;;;;1.68;87.98;99401.03;5099654;28;20225;-56
2022/03/06 11:04:04;;;;;;;10.33;4.90;;;;;;;1.56;88.77;99395.50;5097757;28;20303;-64
2022/03/06 11:06:40;;;;;;;9.13;5.33;;;;;;;1.54;89.74;99393.91;5098215;28;20261;-64
2022/03/06 11:09:13;;;;;;;8.17;4.20;;;;;;;1.51;89.82;99402.41;5099008;28;20209;-64
2022/03/06 11:11:42;;;;;;;9.40;5.33;;;;;;;1.25;90.91;99394.78;5099188;28;20244;-65
2022/03/06 11:14:10;;;;;;;11.77;5.50;;;;;;;1.31;92.38;99385.38;5097876;28;20229;-56
2022/03/06 11:16:39;;;;;;;9.63;4.83;;;;;;;1.19;92.09;99390.72;5098848;28;20228;-56
2022/03/06 11:19:07;;;;;;;10.93;5.80;;;;;;;1.20;93.41;99382.34;5098543;28;20301;-56
2022/03/06 11:21:35;;;;;;;13.27;6.93;;;;;;;1.20;94.08;99386.53;5097120;28;20222;-57
2022/03/06 11:24:09;;;;;;;12.73;6.80;;;;;;;1.24;94.33;99378.84;5096845;28;20194;-64
2022/03/06 11:27:16;;;;;;;9.90;4.87;;;;;;;1.13;95.39;99381.69;5098180;28;20229;-65
2022/03/06 11:30:20;;;;;;;10.80;4.70;;;;;;;1.03;96.43;99385.31;5099063;28;20208;-65
2022/03/06 11:33:00;;;;;;;9.77;5.60;;;;;;;1.09;97.56;99370.03;5097596;28;20703;-57